sensor_id;sensor_type;location;lat;lon;timestamp;temperature;humidity
51739;DHT22;37815;52.692;6.226;2022-09-17T00:04:51;16.70;89.40
51739;DHT22;37815;52.692;6.226;2022-09-17T00:09:51;16.70;89.30
51739;DHT22;37815;52.692;6.226;2022-09-17T00:14:53;16.60;89.20
51739;DHT22;37815;52.692;6.226;2022-09-17T00:19:54;16.60;89.20
51739;DHT22;37815;52.692;6.226;2022-09-17T00:24:55;17.10;89.40
51739;DHT22;37815;52.692;6.226;2022-09-17T00:29:56;16.60;89.10
51739;DHT22;37815;52.692;6.226;2022-09-17T00:34:56;16.60;89.10
51739;DHT22;37815;52.692;6.226;2022-09-17T00:39:57;16.60;89.00
51739;DHT22;37815;52.692;6.226;2022-09-17T00:44:58;16.60;89.10
51739;DHT22;37815;52.692;6.226;2022-09-17T00:50:10;16.60;89.10
51739;DHT22;37815;52.692;6.226;2022-09-17T01:00:22;16.50;89.00
51739;DHT22;37815;52.692;6.226;2022-09-17T01:05:50;16.50;89.00
51739;DHT22;37815;52.692;6.226;2022-09-17T01:16:40;16.50;89.00
51739;DHT22;37815;52.692;6.226;2022-09-17T01:22:11;16.40;88.90
51739;DHT22;37815;52.692;6.226;2022-09-17T01:27:31;16.40;89.10
51739;DHT22;37815;52.692;6.226;2022-09-17T01:32:44;16.40;88.90
51739;DHT22;37815;52.692;6.226;2022-09-17T01:43:22;16.40;88.90
51739;DHT22;37815;52.692;6.226;2022-09-17T01:48:25;16.30;88.80
51739;DHT22;37815;52.692;6.226;2022-09-17T01:53:35;16.30;88.70
51739;DHT22;37815;52.692;6.226;2022-09-17T01:58:48;16.30;88.70
51739;DHT22;37815;52.692;6.226;2022-09-17T02:03:59;16.30;88.80
51739;DHT22;37815;52.692;6.226;2022-09-17T02:09:19;16.30;88.70
51739;DHT22;37815;52.692;6.226;2022-09-17T02:14:26;16.30;88.70
51739;DHT22;37815;52.692;6.226;2022-09-17T02:19:34;16.20;88.70
51739;DHT22;37815;52.692;6.226;2022-09-17T02:29:41;16.20;88.60
51739;DHT22;37815;52.692;6.226;2022-09-17T02:34:43;16.20;88.60
51739;DHT22;37815;52.692;6.226;2022-09-17T02:39:44;16.20;88.70
51739;DHT22;37815;52.692;6.226;2022-09-17T02:44:48;16.20;88.70
51739;DHT22;37815;52.692;6.226;2022-09-17T02:55:49;16.20;88.60
51739;DHT22;37815;52.692;6.226;2022-09-17T03:00:43;16.20;88.60
51739;DHT22;37815;52.692;6.226;2022-09-17T03:05:45;16.10;88.50
51739;DHT22;37815;52.692;6.226;2022-09-17T03:10:46;16.10;88.60
51739;DHT22;37815;52.692;6.226;2022-09-17T03:15:48;16.10;88.60
51739;DHT22;37815;52.692;6.226;2022-09-17T03:20:49;16.10;88.50
51739;DHT22;37815;52.692;6.226;2022-09-17T03:25:50;16.10;88.60
51739;DHT22;37815;52.692;6.226;2022-09-17T03:30:52;16.00;88.50
51739;DHT22;37815;52.692;6.226;2022-09-17T03:35:53;16.00;88.50
51739;DHT22;37815;52.692;6.226;2022-09-17T03:41:02;16.00;88.50
51739;DHT22;37815;52.692;6.226;2022-09-17T03:46:03;16.00;88.50
51739;DHT22;37815;52.692;6.226;2022-09-17T03:51:04;16.00;88.50
51739;DHT22;37815;52.692;6.226;2022-09-17T03:56:06;16.00;88.50
51739;DHT22;37815;52.692;6.226;2022-09-17T04:01:07;16.00;88.50
51739;DHT22;37815;52.692;6.226;2022-09-17T04:06:07;16.00;88.50
51739;DHT22;37815;52.692;6.226;2022-09-17T04:11:08;16.00;88.50
51739;DHT22;37815;52.692;6.226;2022-09-17T04:16:09;15.90;88.50
51739;DHT22;37815;52.692;6.226;2022-09-17T04:21:10;15.90;88.50
51739;DHT22;37815;52.692;6.226;2022-09-17T04:26:11;15.90;88.40
51739;DHT22;37815;52.692;6.226;2022-09-17T04:31:12;15.90;88.50
51739;DHT22;37815;52.692;6.226;2022-09-17T04:36:12;15.90;88.50
51739;DHT22;37815;52.692;6.226;2022-09-17T04:41:13;15.90;88.40
51739;DHT22;37815;52.692;6.226;2022-09-17T04:46:14;15.80;88.40
51739;DHT22;37815;52.692;6.226;2022-09-17T04:51:16;15.80;88.40
51739;DHT22;37815;52.692;6.226;2022-09-17T04:56:16;15.80;88.40
51739;DHT22;37815;52.692;6.226;2022-09-17T05:01:17;15.80;88.40
51739;DHT22;37815;52.692;6.226;2022-09-17T05:06:18;15.80;88.30
51739;DHT22;37815;52.692;6.226;2022-09-17T05:11:19;15.80;88.40
51739;DHT22;37815;52.692;6.226;2022-09-17T05:16:19;15.80;88.30
51739;DHT22;37815;52.692;6.226;2022-09-17T05:21:20;15.80;88.40
51739;DHT22;37815;52.692;6.226;2022-09-17T05:26:21;15.80;88.30
51739;DHT22;37815;52.692;6.226;2022-09-17T05:31:22;15.70;88.20
51739;DHT22;37815;52.692;6.226;2022-09-17T05:36:22;15.70;88.30
51739;DHT22;37815;52.692;6.226;2022-09-17T05:41:23;15.70;88.20
51739;DHT22;37815;52.692;6.226;2022-09-17T05:46:24;15.70;88.30
51739;DHT22;37815;52.692;6.226;2022-09-17T05:51:24;15.70;88.20
51739;DHT22;37815;52.692;6.226;2022-09-17T05:56:25;15.70;88.20
51739;DHT22;37815;52.692;6.226;2022-09-17T06:01:26;15.60;88.10
51739;DHT22;37815;52.692;6.226;2022-09-17T06:06:27;15.60;88.10
51739;DHT22;37815;52.692;6.226;2022-09-17T06:11:30;15.60;88.00
51739;DHT22;37815;52.692;6.226;2022-09-17T06:16:35;15.60;88.00
51739;DHT22;37815;52.692;6.226;2022-09-17T06:21:36;15.60;88.00
51739;DHT22;37815;52.692;6.226;2022-09-17T06:26:37;15.60;87.90
51739;DHT22;37815;52.692;6.226;2022-09-17T06:31:37;15.60;87.90
51739;DHT22;37815;52.692;6.226;2022-09-17T06:36:38;15.60;88.40
51739;DHT22;37815;52.692;6.226;2022-09-17T06:41:40;15.60;87.70
51739;DHT22;37815;52.692;6.226;2022-09-17T06:46:42;15.70;87.80
51739;DHT22;37815;52.692;6.226;2022-09-17T06:51:44;15.70;87.80
51739;DHT22;37815;52.692;6.226;2022-09-17T06:56:47;15.70;87.80
51739;DHT22;37815;52.692;6.226;2022-09-17T07:01:48;15.70;87.70
51739;DHT22;37815;52.692;6.226;2022-09-17T07:06:48;15.70;87.60
51739;DHT22;37815;52.692;6.226;2022-09-17T07:11:49;15.70;87.50
51739;DHT22;37815;52.692;6.226;2022-09-17T07:16:51;15.80;87.70
51739;DHT22;37815;52.692;6.226;2022-09-17T07:21:52;15.80;87.60
51739;DHT22;37815;52.692;6.226;2022-09-17T07:26:53;15.80;87.50
51739;DHT22;37815;52.692;6.226;2022-09-17T07:31:54;15.80;87.50
51739;DHT22;37815;52.692;6.226;2022-09-17T07:36:55;15.80;87.40
51739;DHT22;37815;52.692;6.226;2022-09-17T07:41:55;15.90;87.30
51739;DHT22;37815;52.692;6.226;2022-09-17T07:46:56;15.90;87.20
51739;DHT22;37815;52.692;6.226;2022-09-17T07:51:57;16.00;87.10
51739;DHT22;37815;52.692;6.226;2022-09-17T07:56:59;16.10;87.00
51739;DHT22;37815;52.692;6.226;2022-09-17T08:02:00;16.10;86.90
51739;DHT22;37815;52.692;6.226;2022-09-17T08:07:01;16.20;86.80
51739;DHT22;37815;52.692;6.226;2022-09-17T08:12:01;16.30;86.70
51739;DHT22;37815;52.692;6.226;2022-09-17T08:17:02;16.30;86.80
51739;DHT22;37815;52.692;6.226;2022-09-17T08:22:08;16.30;86.90
51739;DHT22;37815;52.692;6.226;2022-09-17T08:27:09;16.30;87.00
51739;DHT22;37815;52.692;6.226;2022-09-17T08:32:10;16.30;87.10
51739;DHT22;37815;52.692;6.226;2022-09-17T08:37:12;16.20;87.50
51739;DHT22;37815;52.692;6.226;2022-09-17T08:42:35;16.10;87.50
51739;DHT22;37815;52.692;6.226;2022-09-17T08:47:38;16.20;87.50
51739;DHT22;37815;52.692;6.226;2022-09-17T08:58:22;16.30;87.50
51739;DHT22;37815;52.692;6.226;2022-09-17T09:08:32;16.20;88.20
51739;DHT22;37815;52.692;6.226;2022-09-17T09:13:42;16.20;88.60
51739;DHT22;37815;52.692;6.226;2022-09-17T09:18:44;16.30;88.50
51739;DHT22;37815;52.692;6.226;2022-09-17T09:23:53;16.30;88.30
51739;DHT22;37815;52.692;6.226;2022-09-17T09:34:18;16.40;88.10
51739;DHT22;37815;52.692;6.226;2022-09-17T09:39:26;16.40;88.10
51739;DHT22;37815;52.692;6.226;2022-09-17T09:44:30;16.40;88.60
51739;DHT22;37815;52.692;6.226;2022-09-17T09:50:09;16.40;88.20
51739;DHT22;37815;52.692;6.226;2022-09-17T09:56:00;16.50;88.70
51739;DHT22;37815;52.692;6.226;2022-09-17T10:01:14;16.60;88.50
51739;DHT22;37815;52.692;6.226;2022-09-17T10:06:16;16.60;88.30
51739;DHT22;37815;52.692;6.226;2022-09-17T10:11:25;16.70;88.10
51739;DHT22;37815;52.692;6.226;2022-09-17T10:16:26;16.80;88.20
51739;DHT22;37815;52.692;6.226;2022-09-17T10:21:37;16.80;87.90
51739;DHT22;37815;52.692;6.226;2022-09-17T10:26:41;16.90;88.00
51739;DHT22;37815;52.692;6.226;2022-09-17T10:31:53;17.00;87.80
51739;DHT22;37815;52.692;6.226;2022-09-17T10:36:54;17.10;87.70
51739;DHT22;37815;52.692;6.226;2022-09-17T10:42:08;17.10;87.70
51739;DHT22;37815;52.692;6.226;2022-09-17T10:47:35;17.10;87.90
51739;DHT22;37815;52.692;6.226;2022-09-17T10:52:38;17.00;88.30
51739;DHT22;37815;52.692;6.226;2022-09-17T11:08:38;17.10;88.40
51739;DHT22;37815;52.692;6.226;2022-09-17T11:19:13;17.00;88.70
51739;DHT22;37815;52.692;6.226;2022-09-17T11:29:57;17.00;88.70
51739;DHT22;37815;52.692;6.226;2022-09-17T11:35:15;17.10;88.80
51739;DHT22;37815;52.692;6.226;2022-09-17T11:40:49;17.00;88.50
51739;DHT22;37815;52.692;6.226;2022-09-17T11:56:41;17.30;88.40
51739;DHT22;37815;52.692;6.226;2022-09-17T12:06:58;17.40;88.20
51739;DHT22;37815;52.692;6.226;2022-09-17T12:12:15;17.40;88.00
51739;DHT22;37815;52.692;6.226;2022-09-17T12:17:23;17.40;88.30
51739;DHT22;37815;52.692;6.226;2022-09-17T12:22:29;17.30;88.60
51739;DHT22;37815;52.692;6.226;2022-09-17T12:38:33;17.40;88.80
51739;DHT22;37815;52.692;6.226;2022-09-17T12:44:01;17.50;89.90
51739;DHT22;37815;52.692;6.226;2022-09-17T12:59:16;17.60;88.70
51739;DHT22;37815;52.692;6.226;2022-09-17T13:04:22;17.60;88.70
51739;DHT22;37815;52.692;6.226;2022-09-17T13:20:53;17.70;89.30
51739;DHT22;37815;52.692;6.226;2022-09-17T13:25:54;17.90;89.20
51739;DHT22;37815;52.692;6.226;2022-09-17T13:31:00;17.90;88.90
51739;DHT22;37815;52.692;6.226;2022-09-17T13:36:01;17.90;89.40
51739;DHT22;37815;52.692;6.226;2022-09-17T13:41:17;17.80;89.70
51739;DHT22;37815;52.692;6.226;2022-09-17T13:46:22;17.70;90.10
51739;DHT22;37815;52.692;6.226;2022-09-17T13:56:39;17.70;90.20
51739;DHT22;37815;52.692;6.226;2022-09-17T14:02:37;17.90;90.30
51739;DHT22;37815;52.692;6.226;2022-09-17T14:07:32;17.80;90.50
51739;DHT22;37815;52.692;6.226;2022-09-17T14:17:51;17.90;90.30
51739;DHT22;37815;52.692;6.226;2022-09-17T14:22:59;17.90;90.30
51739;DHT22;37815;52.692;6.226;2022-09-17T14:28:28;17.90;90.20
51739;DHT22;37815;52.692;6.226;2022-09-17T14:33:28;18.10;90.00
51739;DHT22;37815;52.692;6.226;2022-09-17T14:38:36;18.50;89.70
51739;DHT22;37815;52.692;6.226;2022-09-17T14:48:43;18.30;88.80
51739;DHT22;37815;52.692;6.226;2022-09-17T14:53:44;18.30;88.90
51739;DHT22;37815;52.692;6.226;2022-09-17T14:58:48;18.20;89.00
51739;DHT22;37815;52.692;6.226;2022-09-17T15:09:22;18.10;89.70
51739;DHT22;37815;52.692;6.226;2022-09-17T15:14:28;18.10;89.90
51739;DHT22;37815;52.692;6.226;2022-09-17T15:29:42;17.90;90.10
51739;DHT22;37815;52.692;6.226;2022-09-17T15:34:44;17.90;90.00
51739;DHT22;37815;52.692;6.226;2022-09-17T15:39:50;17.90;90.20
51739;DHT22;37815;52.692;6.226;2022-09-17T15:44:51;17.90;89.70
51739;DHT22;37815;52.692;6.226;2022-09-17T15:50:14;17.90;89.70
51739;DHT22;37815;52.692;6.226;2022-09-17T15:55:26;17.90;89.50
51739;DHT22;37815;52.692;6.226;2022-09-17T16:00:29;17.80;89.60
51739;DHT22;37815;52.692;6.226;2022-09-17T16:05:43;17.80;89.80
51739;DHT22;37815;52.692;6.226;2022-09-17T16:10:45;17.80;89.70
51739;DHT22;37815;52.692;6.226;2022-09-17T16:15:46;17.70;89.80
51739;DHT22;37815;52.692;6.226;2022-09-17T16:20:47;17.70;89.80
51739;DHT22;37815;52.692;6.226;2022-09-17T16:25:48;17.70;89.90
51739;DHT22;37815;52.692;6.226;2022-09-17T16:30:50;17.60;89.90
51739;DHT22;37815;52.692;6.226;2022-09-17T16:35:50;17.60;90.00
51739;DHT22;37815;52.692;6.226;2022-09-17T16:40:51;17.60;90.00
51739;DHT22;37815;52.692;6.226;2022-09-17T16:46:02;17.60;90.00
51739;DHT22;37815;52.692;6.226;2022-09-17T16:51:07;17.50;89.80
51739;DHT22;37815;52.692;6.226;2022-09-17T16:56:09;17.50;89.80
51739;DHT22;37815;52.692;6.226;2022-09-17T17:01:11;17.50;90.00
51739;DHT22;37815;52.692;6.226;2022-09-17T17:06:20;17.40;89.90
51739;DHT22;37815;52.692;6.226;2022-09-17T17:11:21;17.40;89.80
51739;DHT22;37815;52.692;6.226;2022-09-17T17:16:22;17.40;89.90
51739;DHT22;37815;52.692;6.226;2022-09-17T17:21:24;17.30;89.90
51739;DHT22;37815;52.692;6.226;2022-09-17T17:26:28;17.30;89.90
51739;DHT22;37815;52.692;6.226;2022-09-17T17:31:28;17.30;89.80
51739;DHT22;37815;52.692;6.226;2022-09-17T17:36:29;17.30;89.80
51739;DHT22;37815;52.692;6.226;2022-09-17T17:41:31;17.30;89.80
51739;DHT22;37815;52.692;6.226;2022-09-17T17:46:32;17.20;89.70
51739;DHT22;37815;52.692;6.226;2022-09-17T17:51:33;17.20;89.70
51739;DHT22;37815;52.692;6.226;2022-09-17T17:56:35;17.20;89.70
51739;DHT22;37815;52.692;6.226;2022-09-17T18:01:36;17.20;89.70
51739;DHT22;37815;52.692;6.226;2022-09-17T18:06:37;17.10;89.70
51739;DHT22;37815;52.692;6.226;2022-09-17T18:11:38;17.10;89.80
51739;DHT22;37815;52.692;6.226;2022-09-17T18:16:39;17.10;89.80
51739;DHT22;37815;52.692;6.226;2022-09-17T18:21:40;17.00;89.70
51739;DHT22;37815;52.692;6.226;2022-09-17T18:26:41;17.00;89.80
51739;DHT22;37815;52.692;6.226;2022-09-17T18:31:41;17.00;89.90
51739;DHT22;37815;52.692;6.226;2022-09-17T18:36:44;17.00;90.20
51739;DHT22;37815;52.692;6.226;2022-09-17T18:41:45;16.90;89.80
51739;DHT22;37815;52.692;6.226;2022-09-17T18:46:46;16.90;89.80
51739;DHT22;37815;52.692;6.226;2022-09-17T18:51:48;16.90;89.80
51739;DHT22;37815;52.692;6.226;2022-09-17T18:56:49;16.90;89.80
51739;DHT22;37815;52.692;6.226;2022-09-17T19:01:50;16.90;89.80
51739;DHT22;37815;52.692;6.226;2022-09-17T19:06:51;16.80;89.70
51739;DHT22;37815;52.692;6.226;2022-09-17T19:11:51;16.80;89.70
51739;DHT22;37815;52.692;6.226;2022-09-17T19:16:52;16.80;89.70
51739;DHT22;37815;52.692;6.226;2022-09-17T19:21:54;16.80;89.70
51739;DHT22;37815;52.692;6.226;2022-09-17T19:26:55;16.80;89.60
51739;DHT22;37815;52.692;6.226;2022-09-17T19:31:56;16.80;89.60
51739;DHT22;37815;52.692;6.226;2022-09-17T19:36:57;16.70;89.60
51739;DHT22;37815;52.692;6.226;2022-09-17T19:41:58;16.70;89.60
51739;DHT22;37815;52.692;6.226;2022-09-17T19:46:58;16.70;89.60
51739;DHT22;37815;52.692;6.226;2022-09-17T19:51:59;16.70;89.60
51739;DHT22;37815;52.692;6.226;2022-09-17T19:57:00;16.60;89.60
51739;DHT22;37815;52.692;6.226;2022-09-17T20:02:01;16.60;89.60
51739;DHT22;37815;52.692;6.226;2022-09-17T20:07:01;16.60;89.60
51739;DHT22;37815;52.692;6.226;2022-09-17T20:12:04;16.60;89.60
51739;DHT22;37815;52.692;6.226;2022-09-17T20:17:04;16.60;89.60
51739;DHT22;37815;52.692;6.226;2022-09-17T20:22:05;16.50;89.50
51739;DHT22;37815;52.692;6.226;2022-09-17T20:27:06;16.50;89.50
51739;DHT22;37815;52.692;6.226;2022-09-17T20:32:07;16.50;89.50
51739;DHT22;37815;52.692;6.226;2022-09-17T20:37:08;16.40;89.40
51739;DHT22;37815;52.692;6.226;2022-09-17T20:42:08;16.40;89.30
51739;DHT22;37815;52.692;6.226;2022-09-17T20:47:09;16.40;89.30
51739;DHT22;37815;52.692;6.226;2022-09-17T20:52:09;16.40;89.30
51739;DHT22;37815;52.692;6.226;2022-09-17T20:57:10;16.40;89.30
51739;DHT22;37815;52.692;6.226;2022-09-17T21:02:11;16.40;89.30
51739;DHT22;37815;52.692;6.226;2022-09-17T21:07:14;16.30;89.20
51739;DHT22;37815;52.692;6.226;2022-09-17T21:12:15;16.30;89.20
51739;DHT22;37815;52.692;6.226;2022-09-17T21:17:16;16.30;89.20
51739;DHT22;37815;52.692;6.226;2022-09-17T21:22:17;16.30;89.20
51739;DHT22;37815;52.692;6.226;2022-09-17T21:27:18;16.30;89.20
51739;DHT22;37815;52.692;6.226;2022-09-17T21:32:18;16.20;89.10
51739;DHT22;37815;52.692;6.226;2022-09-17T21:37:19;16.20;89.00
51739;DHT22;37815;52.692;6.226;2022-09-17T21:42:20;16.20;89.10
51739;DHT22;37815;52.692;6.226;2022-09-17T21:47:20;16.20;89.00
51739;DHT22;37815;52.692;6.226;2022-09-17T21:52:30;16.20;89.10
51739;DHT22;37815;52.692;6.226;2022-09-17T21:57:32;16.20;89.10
51739;DHT22;37815;52.692;6.226;2022-09-17T22:02:33;16.10;89.20
51739;DHT22;37815;52.692;6.226;2022-09-17T22:07:35;16.10;89.20
51739;DHT22;37815;52.692;6.226;2022-09-17T22:12:35;16.10;89.30
51739;DHT22;37815;52.692;6.226;2022-09-17T22:17:36;16.10;89.40
51739;DHT22;37815;52.692;6.226;2022-09-17T22:22:37;16.10;89.40
51739;DHT22;37815;52.692;6.226;2022-09-17T22:27:53;16.10;89.40
51739;DHT22;37815;52.692;6.226;2022-09-17T22:32:54;16.10;89.40
51739;DHT22;37815;52.692;6.226;2022-09-17T22:37:54;16.10;89.40
51739;DHT22;37815;52.692;6.226;2022-09-17T22:42:55;16.10;89.40
51739;DHT22;37815;52.692;6.226;2022-09-17T22:47:56;16.10;89.50
51739;DHT22;37815;52.692;6.226;2022-09-17T22:52:56;16.10;89.50
51739;DHT22;37815;52.692;6.226;2022-09-17T22:57:57;16.00;89.50
51739;DHT22;37815;52.692;6.226;2022-09-17T23:02:58;16.00;89.50
51739;DHT22;37815;52.692;6.226;2022-09-17T23:07:58;16.00;89.60
51739;DHT22;37815;52.692;6.226;2022-09-17T23:12:59;16.00;89.70
51739;DHT22;37815;52.692;6.226;2022-09-17T23:18:00;16.00;89.70
51739;DHT22;37815;52.692;6.226;2022-09-17T23:23:00;16.00;89.80
51739;DHT22;37815;52.692;6.226;2022-09-17T23:28:01;16.10;89.80
51739;DHT22;37815;52.692;6.226;2022-09-17T23:33:02;16.00;89.80
51739;DHT22;37815;52.692;6.226;2022-09-17T23:38:03;16.00;89.90
51739;DHT22;37815;52.692;6.226;2022-09-17T23:43:03;16.00;89.90
51739;DHT22;37815;52.692;6.226;2022-09-17T23:48:04;16.00;89.90
51739;DHT22;37815;52.692;6.226;2022-09-17T23:53:04;16.00;90.00
51739;DHT22;37815;52.692;6.226;2022-09-17T23:58:05;16.00;90.00
